Terminal Aerodrome Forecast
Issued by NWS

Home | Current Version | Previous Version | Graphics & Text | Print | Product List | Glossary Off
Versions: 1 2 3 4 5 6 7 8 9 10 11 12 13 14 15 16 17 18 19

000
FTUS43 KDDC 210534
TAFHYS
TAF
KHYS 210534Z 2106/2206 10012G18KT P6SM -SHRA OVC035
     FM210800 08012G18KT 6SM -SHRA OVC030
     FM211100 06012KT 5SM -RA OVC015
     FM211300 05012KT 5SM BR OVC008
      TEMPO 2113/2117 2SM -SHRA OVC004
     FM212200 04010KT P6SM OVC008=

USA.gov is the U.S. government's official web portal to all federal, state and local government web resources and services.